createdAt,value
2023-05-10T00:00:17.752Z,45.47
2023-05-10T00:03:23.886Z,45.38
2023-05-10T00:06:27.160Z,45.63
2023-05-10T00:09:30.167Z,45.20
2023-05-10T00:12:33.235Z,45.17
2023-05-10T00:15:36.668Z,45.52
2023-05-10T00:18:41.233Z,45.51
2023-05-10T00:21:44.286Z,45.52
2023-05-10T00:24:47.336Z,45.34
2023-05-10T00:27:50.601Z,45.51
2023-05-10T00:30:53.679Z,45.49
2023-05-10T00:33:58.352Z,45.36
2023-05-10T00:37:01.405Z,45.48
2023-05-10T00:40:04.521Z,45.55
2023-05-10T00:43:07.572Z,45.60
2023-05-10T00:46:10.679Z,45.63
2023-05-10T00:49:15.290Z,45.44
2023-05-10T00:52:18.432Z,45.51
2023-05-10T00:55:22.613Z,45.11
2023-05-10T00:58:29.209Z,45.75
2023-05-10T01:01:33.334Z,45.28
2023-05-10T01:04:38.294Z,45.49
2023-05-10T01:07:42.195Z,45.37
2023-05-10T01:10:46.657Z,45.54
2023-05-10T01:13:54.905Z,45.46
2023-05-10T01:16:58.433Z,45.61
2023-05-10T01:20:02.997Z,45.25
2023-05-10T01:23:33.137Z,45.09
2023-05-10T01:27:00.540Z,45.30
2023-05-10T01:30:41.519Z,45.44
2023-05-10T01:33:51.743Z,45.27
2023-05-10T01:37:00.787Z,45.17
2023-05-10T01:40:12.552Z,45.03
2023-05-10T01:46:29.576Z,45.28
2023-05-10T01:49:42.036Z,45.12
2023-05-10T01:52:47.018Z,45.08
2023-05-10T01:55:53.466Z,44.96
2023-05-10T01:58:59.018Z,45.29
2023-05-10T02:02:04.251Z,45.29
2023-05-10T02:05:10.398Z,45.28
2023-05-10T02:08:14.513Z,45.01
2023-05-10T02:11:19.754Z,45.07
2023-05-10T02:14:25.515Z,45.27
2023-05-10T02:17:29.825Z,45.37
2023-05-10T02:20:35.546Z,45.10
2023-05-10T02:23:40.365Z,45.31
2023-05-10T02:26:45.692Z,45.12
2023-05-10T02:29:49.496Z,45.11
2023-05-10T02:32:53.782Z,44.82
2023-05-10T02:35:58.908Z,45.01
2023-05-10T02:39:04.140Z,45.04
2023-05-10T02:42:07.837Z,44.89
2023-05-10T02:45:15.554Z,44.96
2023-05-10T02:48:19.099Z,45.11
2023-05-10T02:51:27.361Z,45.01
2023-05-10T02:54:35.454Z,44.66
2023-05-10T02:57:43.068Z,44.82
2023-05-10T03:00:46.352Z,44.93
2023-05-10T03:03:49.439Z,45.08
2023-05-10T03:06:54.231Z,44.95
2023-05-10T03:09:57.400Z,45.02
2023-05-10T03:13:13.702Z,45.01
2023-05-10T03:16:19.221Z,45.41
2023-05-10T03:19:28.664Z,44.81
2023-05-10T03:22:36.581Z,46.23
2023-05-10T03:25:42.010Z,45.95
2023-05-10T03:28:45.967Z,45.49
2023-05-10T03:31:49.241Z,45.17
2023-05-10T03:34:52.598Z,45.23
2023-05-10T03:37:57.071Z,45.38
2023-05-10T03:41:00.094Z,45.90
2023-05-10T03:44:03.383Z,45.38
2023-05-10T03:47:06.581Z,45.61
2023-05-10T03:50:11.337Z,45.25
2023-05-10T03:53:15.819Z,45.83
2023-05-10T03:56:18.941Z,46.13
2023-05-10T03:59:21.972Z,45.74
2023-05-10T04:02:25.277Z,45.13
2023-05-10T04:05:28.486Z,45.30
2023-05-10T04:08:33.426Z,45.48
2023-05-10T04:11:36.468Z,45.21
2023-05-10T04:14:39.566Z,45.60
2023-05-10T04:17:42.651Z,45.17
2023-05-10T04:20:45.793Z,45.42
2023-05-10T04:23:50.300Z,45.56
2023-05-10T04:26:53.861Z,45.34
2023-05-10T04:29:57.752Z,45.27
2023-05-10T04:33:00.972Z,44.92
2023-05-10T04:36:04.444Z,44.94
2023-05-10T04:39:09.519Z,44.94
2023-05-10T04:42:12.856Z,45.21
2023-05-10T04:45:16.726Z,45.00
2023-05-10T04:48:19.747Z,44.92
2023-05-10T04:51:22.839Z,44.86
2023-05-10T04:54:27.492Z,44.91
2023-05-10T04:57:30.490Z,44.64
2023-05-10T05:00:33.603Z,44.99
2023-05-10T05:03:36.776Z,45.07
2023-05-10T05:06:39.843Z,44.86
2023-05-10T05:09:44.282Z,44.42
2023-05-10T05:12:47.382Z,44.52
2023-05-10T05:15:50.431Z,44.59
2023-05-10T05:18:53.503Z,44.54
2023-05-10T05:21:56.473Z,44.41
2023-05-10T05:25:01.639Z,44.56
2023-05-10T05:28:04.672Z,44.18
2023-05-10T05:31:08.775Z,44.32
2023-05-10T05:34:11.993Z,44.18
2023-05-10T05:37:16.334Z,44.28
2023-05-10T05:40:21.482Z,44.20
2023-05-10T05:43:24.856Z,44.23
2023-05-10T05:46:27.898Z,44.29
2023-05-10T05:49:31.056Z,43.98
2023-05-10T05:52:34.129Z,44.10
2023-05-10T05:55:38.650Z,44.16
2023-05-10T05:58:41.909Z,44.09
2023-05-10T06:01:44.924Z,44.07
2023-05-10T06:04:47.995Z,44.14
2023-05-10T06:07:51.075Z,43.87
2023-05-10T06:10:55.496Z,43.99
2023-05-10T06:13:58.504Z,43.90
2023-05-10T06:17:02.082Z,43.73
2023-05-10T06:20:06.336Z,44.17
2023-05-10T06:23:09.415Z,44.15
2023-05-10T06:26:14.895Z,43.88
2023-05-10T06:29:17.974Z,43.84
2023-05-10T06:32:21.053Z,44.10
2023-05-10T06:35:24.272Z,43.72
2023-05-10T06:38:27.445Z,43.73
2023-05-10T06:41:31.919Z,43.54
2023-05-10T06:44:34.974Z,43.75
2023-05-10T06:47:39.201Z,44.02
2023-05-10T06:50:42.644Z,43.85
2023-05-10T06:53:45.681Z,43.40
2023-05-10T06:56:50.284Z,43.65
2023-05-10T06:59:54.120Z,43.58
2023-05-10T07:02:57.229Z,43.58
2023-05-10T07:06:05.436Z,43.53
2023-05-10T07:09:08.741Z,43.60
2023-05-10T07:12:15.302Z,43.76
2023-05-10T07:15:19.467Z,43.50
2023-05-10T07:18:22.702Z,43.47
2023-05-10T07:21:26.329Z,43.27
2023-05-10T07:24:29.366Z,43.42
2023-05-10T07:27:33.833Z,43.43
2023-05-10T07:30:37.219Z,43.46
2023-05-10T07:33:40.987Z,43.38
2023-05-10T07:36:44.011Z,43.61
2023-05-10T07:39:47.084Z,43.96
2023-05-10T07:42:51.569Z,44.06
2023-05-10T07:45:56.273Z,43.88
2023-05-10T07:48:59.695Z,43.92
2023-05-10T07:52:02.748Z,43.66
2023-05-10T07:55:06.498Z,44.08
2023-05-10T07:58:10.957Z,43.77
2023-05-10T08:01:14.093Z,43.84
2023-05-10T08:04:17.166Z,44.07
2023-05-10T08:07:20.303Z,43.51
2023-05-10T08:10:23.302Z,43.60
2023-05-10T08:13:27.960Z,43.62
2023-05-10T08:16:31.084Z,44.27
2023-05-10T08:19:34.148Z,44.09
2023-05-10T08:22:37.313Z,43.96
2023-05-10T08:25:40.338Z,44.16
2023-05-10T08:28:44.838Z,44.85
2023-05-10T08:31:47.975Z,44.26
2023-05-10T08:34:50.989Z,44.52
2023-05-10T08:37:54.025Z,44.81
2023-05-10T08:40:59.731Z,44.33
2023-05-10T08:44:07.233Z,44.88
2023-05-10T08:47:12.581Z,44.98
2023-05-10T08:50:17.317Z,44.87
2023-05-10T08:53:22.180Z,45.16
2023-05-10T08:56:25.563Z,44.74
2023-05-10T08:59:30.608Z,45.14
2023-05-10T09:02:33.748Z,45.16
2023-05-10T09:05:38.467Z,44.56
2023-05-10T09:08:43.892Z,44.80
2023-05-10T09:11:47.322Z,44.77
2023-05-10T09:14:52.921Z,44.95
2023-05-10T09:17:57.397Z,44.87
2023-05-10T09:21:00.487Z,44.75
2023-05-10T09:24:06.272Z,44.67
2023-05-10T09:27:09.270Z,44.54
2023-05-10T09:30:18.190Z,44.57
2023-05-10T09:33:21.312Z,44.31
2023-05-10T09:36:24.305Z,44.27
2023-05-10T09:39:34.169Z,44.28
2023-05-10T09:42:37.298Z,44.12
2023-05-10T09:45:43.607Z,44.36
2023-05-10T09:48:48.224Z,44.17
2023-05-10T09:52:03.539Z,43.91
2023-05-10T09:55:07.287Z,44.35
2023-05-10T09:58:12.032Z,44.01
2023-05-10T10:01:16.684Z,44.07
2023-05-10T10:04:19.847Z,44.01
2023-05-10T10:07:26.593Z,43.71
2023-05-10T10:10:30.626Z,44.06
2023-05-10T10:13:34.315Z,43.95
2023-05-10T10:16:48.450Z,43.92
2023-05-10T10:19:55.050Z,43.90
2023-05-10T10:22:58.148Z,44.28
2023-05-10T10:26:01.990Z,43.98
2023-05-10T10:29:18.617Z,44.07
2023-05-10T10:32:31.817Z,44.01
2023-05-10T10:35:35.396Z,43.75
2023-05-10T10:38:40.754Z,43.99
2023-05-10T10:41:52.284Z,43.96
2023-05-10T10:45:14.211Z,43.98
2023-05-10T10:48:25.934Z,43.66
2023-05-10T10:51:32.279Z,43.74
2023-05-10T10:54:35.289Z,43.88
2023-05-10T10:57:49.786Z,43.86
2023-05-10T11:01:11.012Z,43.59
2023-05-10T11:04:22.662Z,43.57
2023-05-10T11:07:25.823Z,43.66
2023-05-10T11:10:29.810Z,43.78
2023-05-10T11:13:34.835Z,43.54
2023-05-10T11:16:44.064Z,43.68
2023-05-10T11:20:08.595Z,43.70
2023-05-10T11:23:17.008Z,43.59
2023-05-10T11:26:24.201Z,43.53
2023-05-10T11:29:27.704Z,43.24
2023-05-10T11:32:31.678Z,43.43
2023-05-10T11:35:43.145Z,43.32
2023-05-10T11:38:46.807Z,43.05
2023-05-10T11:41:51.323Z,43.39
2023-05-10T11:44:54.546Z,43.24
2023-05-10T11:47:59.054Z,43.31
2023-05-10T11:51:04.750Z,43.48
2023-05-10T11:54:10.193Z,43.19
2023-05-10T11:57:13.284Z,43.19
2023-05-10T12:00:17.276Z,43.15
2023-05-10T12:03:21.060Z,43.09
2023-05-10T12:06:29.106Z,43.16
2023-05-10T12:09:43.372Z,43.27
2023-05-10T12:12:48.566Z,43.24
2023-05-10T12:15:51.636Z,43.21
2023-05-10T12:18:56.187Z,43.07
2023-05-10T12:22:01.202Z,42.89
2023-05-10T12:25:05.300Z,43.20
2023-05-10T12:28:09.716Z,43.63
2023-05-10T12:31:12.942Z,43.28
2023-05-10T12:34:25.594Z,43.24
2023-05-10T12:37:31.573Z,43.50
2023-05-10T12:40:34.639Z,43.96
2023-05-10T12:43:38.633Z,43.83
2023-05-10T12:46:41.621Z,43.75
2023-05-10T12:49:44.759Z,43.50
2023-05-10T12:52:49.180Z,43.46
2023-05-10T12:55:52.228Z,43.65
2023-05-10T12:58:55.270Z,43.63
2023-05-10T13:01:59.467Z,43.47
2023-05-10T13:05:02.604Z,43.48
2023-05-10T13:08:07.484Z,43.38
2023-05-10T13:11:10.552Z,43.29
2023-05-10T13:14:14.386Z,43.35
2023-05-10T13:17:17.430Z,43.31
2023-05-10T13:20:20.625Z,43.39
2023-05-10T13:23:25.087Z,43.28
2023-05-10T13:26:28.108Z,43.16
2023-05-10T13:29:31.121Z,43.23
2023-05-10T13:32:34.892Z,43.09
2023-05-10T13:35:37.982Z,43.33
2023-05-10T13:38:42.458Z,43.23
2023-05-10T13:41:45.479Z,43.26
2023-05-10T13:44:48.538Z,43.19
2023-05-10T13:47:51.627Z,43.14
2023-05-10T13:50:54.705Z,43.07
2023-05-10T13:53:59.092Z,43.04
2023-05-10T13:57:02.290Z,42.94
2023-05-10T14:00:06.462Z,42.94
2023-05-10T14:03:12.096Z,43.15
2023-05-10T14:06:15.539Z,43.02
2023-05-10T14:09:22.621Z,42.84
2023-05-10T14:12:25.663Z,42.98
2023-05-10T14:15:28.927Z,43.04
2023-05-10T14:18:32.188Z,42.78
2023-05-10T14:21:35.595Z,42.96
2023-05-10T14:24:40.472Z,42.92
2023-05-10T14:27:43.552Z,42.92
2023-05-10T14:30:46.659Z,43.02
2023-05-10T14:33:49.869Z,42.71
2023-05-10T14:36:52.956Z,42.88
2023-05-10T14:39:57.412Z,42.74
2023-05-10T14:43:00.484Z,42.88
2023-05-10T14:46:03.769Z,42.69
2023-05-10T14:49:06.818Z,42.79
2023-05-10T14:52:09.881Z,42.99
2023-05-10T14:55:14.451Z,42.82
2023-05-10T14:58:17.537Z,42.69
2023-05-10T15:01:20.668Z,42.70
2023-05-10T15:04:25.452Z,43.02
2023-05-10T15:07:30.170Z,43.79
2023-05-10T15:10:34.647Z,42.92
2023-05-10T15:13:37.707Z,43.17
2023-05-10T15:16:40.747Z,42.87
2023-05-10T15:19:43.902Z,43.16
2023-05-10T15:22:46.929Z,42.97
2023-05-10T15:25:51.431Z,43.16
2023-05-10T15:28:55.311Z,43.40
2023-05-10T15:31:58.284Z,43.63
2023-05-10T15:35:01.788Z,43.86
2023-05-10T15:38:04.758Z,44.40
2023-05-10T15:41:09.095Z,44.30
2023-05-10T15:44:12.100Z,43.89
2023-05-10T15:47:15.081Z,43.65
2023-05-10T15:50:18.416Z,43.92
2023-05-10T15:53:21.525Z,43.83
2023-05-10T15:56:26.825Z,43.73
2023-05-10T15:59:29.862Z,44.00
2023-05-10T16:02:33.068Z,43.69
2023-05-10T16:05:36.204Z,43.97
2023-05-10T16:08:39.276Z,43.97
2023-05-10T16:11:44.341Z,43.79
2023-05-10T16:14:47.683Z,43.60
2023-05-10T16:17:51.235Z,43.71
2023-05-10T16:20:54.714Z,43.89
2023-05-10T16:23:57.940Z,43.70
2023-05-10T16:27:03.205Z,43.56
2023-05-10T16:30:07.644Z,43.58
2023-05-10T16:33:10.681Z,43.59
2023-05-10T16:36:13.741Z,43.56
2023-05-10T16:39:16.731Z,43.61
2023-05-10T16:42:21.153Z,43.81
2023-05-10T16:45:24.620Z,43.29
2023-05-10T16:48:27.613Z,43.49
2023-05-10T16:51:30.745Z,43.55
2023-05-10T16:54:33.821Z,43.72
2023-05-10T16:57:38.319Z,44.56
2023-05-10T17:00:41.436Z,45.31
2023-05-10T17:03:44.759Z,45.36
2023-05-10T17:06:48.012Z,44.93
2023-05-10T17:09:51.043Z,44.75
2023-05-10T17:12:55.503Z,44.98
2023-05-10T17:15:59.080Z,44.82
2023-05-10T17:19:02.199Z,44.66
2023-05-10T17:22:05.298Z,44.46
2023-05-10T17:25:09.301Z,44.80
2023-05-10T17:28:13.843Z,44.71
2023-05-10T17:31:17.165Z,44.69
2023-05-10T17:34:20.251Z,44.81
2023-05-10T17:37:23.311Z,43.73
2023-05-10T17:40:26.271Z,44.50
2023-05-10T17:43:30.677Z,44.46
2023-05-10T17:46:33.676Z,44.20
2023-05-10T17:49:36.851Z,43.97
2023-05-10T17:52:39.956Z,44.48
2023-05-10T17:55:43.900Z,44.29
2023-05-10T17:58:48.338Z,44.69
2023-05-10T18:01:51.387Z,44.96
2023-05-10T18:04:55.186Z,44.96
2023-05-10T18:07:59.844Z,45.32
2023-05-10T18:11:02.907Z,44.35
2023-05-10T18:14:07.277Z,42.33
2023-05-10T18:17:11.029Z,41.02
2023-05-10T18:20:14.282Z,40.58
2023-05-10T18:23:17.278Z,40.19
2023-05-10T18:26:20.311Z,39.76
2023-05-10T18:29:24.727Z,39.40
2023-05-10T18:32:28.019Z,39.19
2023-05-10T18:35:31.090Z,38.78
2023-05-10T18:38:34.225Z,38.43
2023-05-10T18:41:37.415Z,38.08
2023-05-10T18:44:41.847Z,38.15
2023-05-10T18:47:45.057Z,38.21
2023-05-10T18:50:48.578Z,38.27
2023-05-10T18:53:51.793Z,38.11
2023-05-10T18:56:54.831Z,38.86
2023-05-10T18:59:59.230Z,38.53
2023-05-10T19:03:02.349Z,38.58
2023-05-10T19:06:05.517Z,38.05
2023-05-10T19:09:09.919Z,37.92
2023-05-10T19:12:12.996Z,37.62
2023-05-10T19:15:19.221Z,37.81
2023-05-10T19:18:24.476Z,37.68
2023-05-10T19:21:27.856Z,38.19
2023-05-10T19:24:31.038Z,38.65
2023-05-10T19:27:34.171Z,38.59
2023-05-10T19:30:38.631Z,38.59
2023-05-10T19:33:41.694Z,38.67
2023-05-10T19:36:44.999Z,38.46
2023-05-10T19:39:48.118Z,41.03
2023-05-10T19:42:51.324Z,41.73
2023-05-10T19:45:56.082Z,41.79
2023-05-10T19:48:59.180Z,41.65
2023-05-10T19:52:02.238Z,42.07
2023-05-10T19:55:05.937Z,41.57
2023-05-10T19:58:09.079Z,41.55
2023-05-10T20:01:13.817Z,41.76
2023-05-10T20:04:16.945Z,41.82
2023-05-10T20:07:20.013Z,42.08
2023-05-10T20:10:25.184Z,41.96
2023-05-10T20:13:29.990Z,41.91
2023-05-10T20:16:34.498Z,42.34
2023-05-10T20:19:37.640Z,42.54
2023-05-10T20:22:41.088Z,42.42
2023-05-10T20:25:44.467Z,42.53
2023-05-10T20:28:47.512Z,42.20
2023-05-10T20:31:52.055Z,42.42
2023-05-10T20:34:55.441Z,42.72
2023-05-10T20:38:00.073Z,42.76
2023-05-10T20:41:03.127Z,42.52
2023-05-10T20:44:06.768Z,42.86
2023-05-10T20:47:11.368Z,42.55
2023-05-10T20:50:14.589Z,42.47
2023-05-10T20:53:18.557Z,42.51
2023-05-10T20:56:21.834Z,43.01
2023-05-10T20:59:24.926Z,42.68
2023-05-10T21:02:29.484Z,42.45
2023-05-10T21:05:32.717Z,43.04
2023-05-10T21:08:35.941Z,42.46
2023-05-10T21:11:39.482Z,42.93
2023-05-10T21:14:43.174Z,43.06
2023-05-10T21:17:47.719Z,42.62
2023-05-10T21:20:50.759Z,42.44
2023-05-10T21:23:53.784Z,42.72
2023-05-10T21:26:56.844Z,42.40
2023-05-10T21:29:59.953Z,42.76
2023-05-10T21:33:04.603Z,42.84
2023-05-10T21:36:08.586Z,43.04
2023-05-10T21:39:12.206Z,42.71
2023-05-10T21:42:15.328Z,42.60
2023-05-10T21:45:18.909Z,42.75
2023-05-10T21:48:23.407Z,42.67
2023-05-10T21:51:26.415Z,42.76
2023-05-10T21:57:32.959Z,42.51
2023-05-10T22:00:36.115Z,42.82
2023-05-10T22:03:40.633Z,42.71
2023-05-10T22:06:44.266Z,42.66
2023-05-10T22:09:47.440Z,42.86
2023-05-10T22:12:50.526Z,42.87
2023-05-10T22:15:53.648Z,42.68
2023-05-10T22:18:58.242Z,42.69
2023-05-10T22:22:01.408Z,42.88
2023-05-10T22:25:04.663Z,42.51
2023-05-10T22:28:09.339Z,43.07
2023-05-10T22:31:12.823Z,42.71
2023-05-10T22:34:17.335Z,42.98
2023-05-10T22:37:20.409Z,42.56
2023-05-10T22:40:23.488Z,42.78
2023-05-10T22:43:26.546Z,42.58
2023-05-10T22:46:30.450Z,42.43
2023-05-10T22:49:35.048Z,42.67
2023-05-10T22:52:39.449Z,42.90
2023-05-10T22:55:42.652Z,42.52
2023-05-10T22:58:45.803Z,42.59
2023-05-10T23:01:49.305Z,42.75
2023-05-10T23:04:53.768Z,42.44
2023-05-10T23:07:56.902Z,42.37
2023-05-10T23:11:00.007Z,42.42
2023-05-10T23:14:03.133Z,42.49
2023-05-10T23:17:06.329Z,42.72
2023-05-10T23:20:12.427Z,42.31
2023-05-10T23:23:15.842Z,42.57
2023-05-10T23:26:18.847Z,42.85
2023-05-10T23:29:22.001Z,42.66
2023-05-10T23:32:25.082Z,42.68
2023-05-10T23:35:29.587Z,42.76
2023-05-10T23:38:32.629Z,42.76
2023-05-10T23:41:35.731Z,42.77
2023-05-10T23:44:38.804Z,42.91
2023-05-10T23:47:42.030Z,42.91
2023-05-10T23:50:47.169Z,42.92
2023-05-10T23:53:50.268Z,42.82
2023-05-10T23:56:53.423Z,42.99
2023-05-10T23:59:56.457Z,43.12
